createdAt,value
2022-12-04T00:02:00.716Z,81.87
2022-12-04T00:07:02.206Z,82.41
2022-12-04T00:12:03.977Z,81.82
2022-12-04T00:17:05.428Z,81.68
2022-12-04T00:22:06.908Z,81.98
2022-12-04T00:27:08.339Z,81.51
2022-12-04T00:32:09.828Z,82.20
2022-12-04T00:37:12.759Z,82.11
2022-12-04T00:42:14.232Z,82.50
2022-12-04T00:47:15.630Z,82.58
2022-12-04T00:52:17.124Z,82.04
2022-12-04T00:57:18.580Z,82.72
2022-12-04T01:02:19.989Z,82.92
2022-12-04T01:07:21.455Z,82.57
2022-12-04T01:12:22.882Z,82.94
2022-12-04T01:17:24.279Z,82.88
2022-12-04T01:22:25.724Z,83.00
2022-12-04T01:27:27.157Z,82.92
2022-12-04T01:32:28.904Z,82.79
2022-12-04T01:37:33.381Z,83.16
2022-12-04T01:42:34.829Z,82.39
2022-12-04T01:47:36.304Z,83.22
2022-12-04T01:52:37.766Z,83.25
2022-12-04T01:57:39.298Z,82.81
2022-12-04T02:02:46.737Z,82.86
2022-12-04T02:07:51.088Z,83.45
2022-12-04T02:13:34.128Z,83.58
2022-12-04T02:18:46.428Z,83.71
2022-12-04T02:23:59.716Z,83.55
2022-12-04T02:29:19.571Z,84.20
2022-12-04T02:34:29.426Z,84.59
2022-12-04T02:39:46.059Z,84.58
2022-12-04T02:45:01.539Z,83.96
2022-12-04T02:50:16.477Z,84.30
2022-12-04T02:55:24.629Z,83.71
2022-12-04T03:00:26.908Z,83.09
2022-12-04T03:05:41.219Z,83.41
2022-12-04T03:10:56.249Z,83.15
2022-12-04T03:16:22.241Z,83.43
2022-12-04T03:21:29.598Z,83.22
2022-12-04T03:26:38.086Z,83.68
2022-12-04T03:32:20.369Z,83.52
2022-12-04T03:38:04.986Z,83.80
2022-12-04T03:43:12.929Z,84.39
2022-12-04T03:48:25.078Z,83.92
2022-12-04T03:53:39.321Z,84.09
2022-12-04T03:58:46.245Z,84.53
2022-12-04T04:03:51.842Z,84.25
2022-12-04T04:08:59.295Z,84.58
2022-12-04T04:14:22.250Z,84.38
2022-12-04T04:19:46.747Z,84.97
2022-12-04T04:24:57.694Z,85.04
2022-12-04T04:29:59.718Z,84.25
2022-12-04T04:35:22.606Z,84.89
2022-12-04T04:40:31.312Z,84.45
2022-12-04T04:45:42.832Z,84.48
2022-12-04T04:50:45.598Z,84.52
2022-12-04T04:55:48.068Z,84.17
2022-12-04T05:00:55.262Z,84.17
2022-12-04T05:05:57.337Z,84.13
2022-12-04T05:10:58.798Z,84.75
2022-12-04T05:16:03.585Z,84.44
2022-12-04T05:21:06.961Z,85.49
2022-12-04T05:26:08.548Z,84.79
2022-12-04T05:31:10.121Z,84.76
2022-12-04T05:36:13.275Z,84.24
2022-12-04T05:41:14.776Z,84.27
2022-12-04T05:46:16.928Z,84.15
2022-12-04T05:51:18.462Z,84.01
2022-12-04T05:56:20.098Z,83.82
2022-12-04T06:01:23.523Z,84.16
2022-12-04T06:06:26.193Z,83.15
2022-12-04T06:11:33.546Z,83.22
2022-12-04T06:16:39.493Z,83.57
2022-12-04T06:21:42.791Z,82.85
2022-12-04T06:27:10.950Z,82.93
2022-12-04T06:32:06.751Z,82.75
2022-12-04T06:37:09.420Z,83.11
2022-12-04T06:42:10.824Z,83.04
2022-12-04T06:47:12.279Z,83.16
2022-12-04T06:52:13.701Z,83.76
2022-12-04T06:57:15.107Z,83.52
2022-12-04T07:02:16.586Z,84.23
2022-12-04T07:07:18.040Z,84.83
2022-12-04T07:12:19.506Z,85.48
2022-12-04T07:17:21.034Z,85.74
2022-12-04T07:22:22.464Z,85.10
2022-12-04T07:27:23.875Z,85.42
2022-12-04T07:32:25.284Z,85.85
2022-12-04T07:37:26.707Z,85.77
2022-12-04T07:42:29.071Z,85.92
2022-12-04T07:47:30.531Z,85.87
2022-12-04T07:52:36.059Z,85.81
2022-12-04T07:57:37.454Z,86.32
2022-12-04T08:02:38.911Z,85.70
2022-12-04T08:07:40.347Z,85.54
2022-12-04T08:12:41.856Z,85.12
2022-12-04T08:17:43.277Z,85.30
2022-12-04T08:22:44.730Z,85.33
2022-12-04T08:27:47.968Z,86.15
2022-12-04T08:32:49.411Z,86.60
2022-12-04T08:37:50.831Z,86.14
2022-12-04T08:42:52.290Z,85.51
2022-12-04T08:47:53.771Z,85.42
2022-12-04T08:52:55.237Z,86.25
2022-12-04T08:57:56.649Z,85.11
2022-12-04T09:02:58.066Z,85.17
2022-12-04T09:07:59.519Z,84.59
2022-12-04T09:13:01.000Z,84.49
2022-12-04T09:18:02.401Z,83.17
2022-12-04T09:23:05.533Z,82.95
2022-12-04T09:28:07.213Z,82.06
2022-12-04T09:33:08.749Z,82.14
2022-12-04T09:38:10.218Z,80.50
2022-12-04T09:43:20.912Z,81.42
2022-12-04T09:48:32.129Z,80.27
2022-12-04T09:53:52.788Z,80.70
2022-12-04T09:58:57.434Z,80.09
2022-12-04T10:04:05.721Z,79.56
2022-12-04T10:09:22.206Z,79.27
2022-12-04T10:14:39.546Z,79.48
2022-12-04T10:19:59.443Z,78.61
2022-12-04T10:25:08.380Z,79.62
2022-12-04T10:30:26.477Z,78.84
2022-12-04T10:35:30.654Z,79.12
2022-12-04T10:40:44.035Z,78.07
2022-12-04T10:45:45.481Z,78.17
2022-12-04T10:50:46.987Z,77.53
2022-12-04T10:55:48.590Z,77.45
2022-12-04T11:01:05.762Z,77.02
2022-12-04T11:06:10.038Z,76.72
2022-12-04T11:11:14.343Z,76.91
2022-12-04T11:16:33.942Z,76.93
2022-12-04T11:21:35.532Z,76.55
2022-12-04T11:26:41.927Z,76.47
2022-12-04T11:31:50.034Z,77.63
2022-12-04T11:36:57.093Z,77.32
2022-12-04T11:42:24.907Z,77.83
2022-12-04T11:47:29.938Z,78.35
2022-12-04T11:52:48.211Z,78.44
2022-12-04T11:58:15.473Z,78.72
2022-12-04T12:03:27.981Z,79.11
2022-12-04T12:08:44.507Z,79.11
2022-12-04T12:13:57.817Z,79.41
2022-12-04T12:19:23.689Z,79.80
2022-12-04T12:24:32.109Z,80.51
2022-12-04T12:30:04.062Z,80.45
2022-12-04T12:35:31.898Z,80.57
2022-12-04T12:40:39.840Z,79.91
2022-12-04T12:46:03.078Z,79.20
2022-12-04T12:51:28.976Z,79.08
2022-12-04T12:56:38.288Z,79.46
2022-12-04T13:01:48.449Z,78.96
2022-12-04T13:07:20.746Z,79.45
2022-12-04T13:12:23.815Z,79.71
2022-12-04T13:17:37.033Z,79.94
2022-12-04T13:23:10.598Z,80.50
2022-12-04T13:28:20.807Z,80.28
2022-12-04T13:33:54.880Z,80.58
2022-12-04T13:39:02.080Z,80.77
2022-12-04T13:44:13.911Z,81.01
2022-12-04T13:49:18.981Z,81.23
2022-12-04T13:54:32.600Z,81.31
2022-12-04T13:59:37.561Z,81.89
2022-12-04T14:04:46.440Z,82.23
2022-12-04T14:09:53.519Z,82.25
2022-12-04T14:15:00.177Z,82.80
2022-12-04T14:20:08.099Z,83.15
2022-12-04T14:25:12.640Z,83.28
2022-12-04T14:30:22.893Z,83.31
2022-12-04T14:35:27.792Z,83.53
2022-12-04T14:40:37.362Z,83.38
2022-12-04T14:46:00.257Z,83.32
2022-12-04T14:51:29.507Z,84.16
2022-12-04T14:56:39.738Z,84.11
2022-12-04T15:01:41.373Z,84.02
2022-12-04T15:06:44.958Z,84.10
2022-12-04T15:12:08.129Z,84.07
2022-12-04T15:17:14.055Z,84.18
2022-12-04T15:22:24.988Z,84.31
2022-12-04T15:27:32.283Z,84.96
2022-12-04T15:32:34.572Z,84.88
2022-12-04T15:37:36.355Z,85.04
2022-12-04T15:42:37.804Z,84.72
2022-12-04T15:47:59.546Z,85.22
2022-12-04T15:53:13.213Z,85.37
2022-12-04T15:58:35.720Z,85.45
2022-12-04T16:03:48.716Z,85.64
2022-12-04T16:08:58.410Z,85.33
2022-12-04T16:14:09.095Z,85.17
2022-12-04T16:19:28.835Z,85.81
2022-12-04T16:24:30.684Z,85.85
2022-12-04T16:29:32.203Z,86.32
2022-12-04T16:34:33.694Z,85.78
2022-12-04T16:39:41.074Z,85.76
2022-12-04T16:44:42.924Z,85.39
2022-12-04T16:49:47.123Z,87.32
2022-12-04T16:54:48.556Z,86.58
2022-12-04T16:59:50.053Z,86.87
2022-12-04T17:04:57.050Z,87.20
2022-12-04T17:09:59.107Z,86.86
2022-12-04T17:15:00.589Z,87.42
2022-12-04T17:20:02.204Z,87.73
2022-12-04T17:25:04.463Z,87.64
2022-12-04T17:30:07.352Z,87.35
2022-12-04T17:35:11.298Z,87.63
2022-12-04T17:40:14.384Z,87.55
2022-12-04T17:45:16.965Z,87.14
2022-12-04T17:50:18.470Z,87.67
2022-12-04T17:55:19.877Z,87.39
2022-12-04T18:00:21.338Z,87.28
2022-12-04T18:05:23.573Z,87.42
2022-12-04T18:10:24.992Z,87.64
2022-12-04T18:15:26.440Z,88.46
2022-12-04T18:20:27.860Z,87.59
2022-12-04T18:25:29.265Z,88.10
2022-12-04T18:30:30.686Z,88.21
2022-12-04T18:35:32.126Z,88.42
2022-12-04T18:40:36.965Z,88.51
2022-12-04T18:45:38.475Z,88.40
2022-12-04T18:50:40.001Z,88.94
2022-12-04T18:55:41.413Z,88.65
2022-12-04T19:00:42.940Z,88.46
2022-12-04T19:05:49.100Z,88.92
2022-12-04T19:10:50.585Z,88.65
2022-12-04T19:15:52.004Z,88.37
2022-12-04T19:20:53.495Z,89.17
2022-12-04T19:25:56.827Z,89.90
2022-12-04T19:30:58.345Z,89.51
2022-12-04T19:36:03.145Z,88.53
2022-12-04T19:41:17.240Z,88.56
2022-12-04T19:46:22.400Z,89.42
2022-12-04T19:51:24.885Z,90.36
2022-12-04T19:56:27.391Z,90.08
2022-12-04T20:01:30.498Z,90.08
2022-12-04T20:06:41.068Z,90.17
2022-12-04T20:11:42.638Z,90.26
2022-12-04T20:16:44.245Z,89.78
2022-12-04T20:21:46.370Z,89.48
2022-12-04T20:26:47.845Z,90.15
2022-12-04T20:31:49.366Z,90.07
2022-12-04T20:36:50.954Z,90.19
2022-12-04T20:41:52.427Z,90.06
2022-12-04T20:46:53.898Z,89.63
2022-12-04T20:51:55.298Z,90.22
2022-12-04T20:56:57.123Z,89.75
2022-12-04T21:01:59.516Z,90.29
2022-12-04T21:07:00.962Z,90.84
2022-12-04T21:12:03.653Z,90.67
2022-12-04T21:17:09.628Z,91.23
2022-12-04T21:22:11.122Z,90.24
2022-12-04T21:27:18.892Z,90.00
2022-12-04T21:32:22.306Z,90.53
2022-12-04T21:37:23.722Z,90.41
2022-12-04T21:42:33.160Z,90.85
2022-12-04T21:47:35.269Z,90.98
2022-12-04T21:52:36.751Z,91.85
2022-12-04T21:57:38.192Z,91.69
2022-12-04T22:02:39.980Z,92.48
2022-12-04T22:07:42.584Z,92.43
2022-12-04T22:12:50.071Z,91.55
2022-12-04T22:17:52.076Z,92.46
2022-12-04T22:22:53.506Z,92.39
2022-12-04T22:27:54.966Z,91.81
2022-12-04T22:32:56.739Z,92.65
2022-12-04T22:37:58.147Z,92.86
2022-12-04T22:42:59.589Z,94.23
2022-12-04T22:48:01.010Z,92.51
2022-12-04T22:53:02.429Z,93.33
2022-12-04T22:58:03.849Z,92.60
2022-12-04T23:03:05.404Z,92.83
2022-12-04T23:08:07.512Z,93.50
2022-12-04T23:13:09.025Z,92.85
2022-12-04T23:18:10.549Z,92.61
2022-12-04T23:23:11.978Z,92.96
2022-12-04T23:28:13.432Z,92.69
2022-12-04T23:33:14.843Z,92.22
2022-12-04T23:38:16.255Z,92.66
2022-12-04T23:43:17.795Z,93.04
2022-12-04T23:48:19.288Z,92.09
2022-12-04T23:53:21.498Z,92.77
2022-12-04T23:58:23.047Z,92.82
